Time;durP1;ratioP1;P1;durP2;ratioP2;P2;SDS_P1;SDS_P2;PMS_P1;PMS_P2;Temp;Humidity;BMP_temperature;BMP_pressure;BME280_temperature;BME280_humidity;BME280_pressure;Samples;Min_cycle;Max_cycle;Signal;HPM_P1;HPM_P2
2023/07/08 00:00:53;;;;;;;6.07;5.47;;;23.70;45.80;;;;;;5015430;28;20272;-82
2023/07/08 00:03:21;;;;;;;6.95;6.03;;;23.70;45.70;;;;;;5015172;28;20196;-82
2023/07/08 00:05:51;;;;;;;7.88;5.95;;;23.70;45.70;;;;;;4998444;28;20306;-82
2023/07/08 00:08:19;;;;;;;6.28;5.65;;;23.70;45.80;;;;;;5015721;28;20325;-82
2023/07/08 00:10:46;;;;;;;6.38;5.60;;;23.70;45.80;;;;;;4998711;28;20719;-82
2023/07/08 00:13:13;;;;;;;6.35;5.75;;;23.70;45.70;;;;;;4998779;28;20200;-82
2023/07/08 00:15:40;;;;;;;6.85;5.78;;;23.70;45.70;;;;;;4999165;28;20210;-82
2023/07/08 00:18:10;;;;;;;6.65;5.40;;;23.60;45.70;;;;;;4998699;28;20224;-82
2023/07/08 00:20:39;;;;;;;6.78;5.90;;;23.60;45.80;;;;;;4998589;28;20192;-82
2023/07/08 00:23:09;;;;;;;6.80;5.85;;;23.60;45.70;;;;;;5016345;28;20705;-83
2023/07/08 00:25:36;;;;;;;7.85;6.60;;;23.60;45.70;;;;;;4998465;28;20590;-82
2023/07/08 00:28:05;;;;;;;7.28;6.10;;;23.60;45.70;;;;;;4998545;28;20208;-82
2023/07/08 00:30:34;;;;;;;6.78;5.78;;;23.60;45.70;;;;;;4998537;28;20200;-82
2023/07/08 00:33:01;;;;;;;8.02;5.70;;;23.50;45.70;;;;;;4998673;28;20205;-82
2023/07/08 00:35:31;;;;;;;6.22;5.63;;;23.60;45.70;;;;;;4998290;28;20197;-82
2023/07/08 00:38:01;;;;;;;6.43;5.70;;;23.50;45.70;;;;;;4998298;28;20212;-82
2023/07/08 00:40:31;;;;;;;6.95;5.80;;;23.60;45.80;;;;;;4998784;28;20224;-82
2023/07/08 00:42:58;;;;;;;6.72;6.03;;;23.50;45.70;;;;;;4997735;28;20203;-82
2023/07/08 00:45:41;;;;;;;7.78;6.45;;;23.50;45.70;;;;;;4998545;28;20212;-82
2023/07/08 00:48:15;;;;;;;6.55;5.43;;;23.50;46.30;;;;;;4997641;28;20196;-82
2023/07/08 00:50:42;;;;;;;6.45;5.78;;;23.50;45.70;;;;;;4997960;28;20196;-82
2023/07/08 00:53:25;;;;;;;7.70;5.80;;;23.50;45.70;;;;;;4997560;28;20275;-82
2023/07/08 00:55:55;;;;;;;6.78;5.70;;;23.50;45.70;;;;;;4998280;28;20247;-82
2023/07/08 00:58:23;;;;;;;6.40;5.72;;;23.50;45.70;;;;;;5014994;28;20200;-82
2023/07/08 01:00:52;;;;;;;6.30;5.70;;;23.50;45.60;;;;;;4998675;28;20197;-79
2023/07/08 01:03:19;;;;;;;5.50;5.00;;;23.50;45.60;;;;;;4999637;28;20232;-80
2023/07/08 01:05:46;;;;;;;7.13;5.80;;;23.50;45.70;;;;;;5000232;28;20582;-81
2023/07/08 01:08:13;;;;;;;7.45;5.75;;;23.40;45.60;;;;;;5000566;28;20193;-81
2023/07/08 01:10:43;;;;;;;7.82;6.13;;;23.40;45.60;;;;;;4999484;28;20258;-81
2023/07/08 01:13:11;;;;;;;6.40;5.40;;;23.50;45.50;;;;;;4999405;28;20193;-80
2023/07/08 01:15:41;;;;;;;7.20;5.93;;;23.40;45.50;;;;;;4999985;28;20193;-81
2023/07/08 01:18:09;;;;;;;6.10;5.50;;;23.50;45.70;;;;;;4999134;28;20196;-80
2023/07/08 01:20:37;;;;;;;6.40;5.70;;;23.40;45.70;;;;;;4999045;28;20196;-80
2023/07/08 01:23:05;;;;;;;6.72;5.63;;;23.40;45.80;;;;;;4998882;28;20204;-80
2023/07/08 01:25:33;;;;;;;6.70;5.90;;;23.40;45.80;;;;;;4998630;28;20212;-80
2023/07/08 01:28:00;;;;;;;6.65;5.78;;;23.30;45.80;;;;;;4998967;28;20197;-80
2023/07/08 01:30:27;;;;;;;6.63;5.80;;;23.40;45.90;;;;;;4998936;28;20631;-81
2023/07/08 01:32:57;;;;;;;6.38;5.55;;;23.40;45.90;;;;;;4999870;28;20283;-80
2023/07/08 01:35:24;;;;;;;6.55;5.82;;;23.30;45.70;;;;;;4998810;28;20200;-80
2023/07/08 01:37:53;;;;;;;6.68;5.90;;;23.30;45.90;;;;;;4997767;28;20343;-80
2023/07/08 01:40:29;;;;;;;7.07;5.53;;;23.30;45.80;;;;;;4980680;28;20250;-80
2023/07/08 01:42:56;;;;;;;5.88;5.28;;;23.30;45.90;;;;;;4997400;28;20291;-80
2023/07/08 01:45:26;;;;;;;5.95;5.35;;;23.30;45.80;;;;;;4981560;28;20216;-80
2023/07/08 01:47:56;;;;;;;7.28;5.78;;;23.30;45.70;;;;;;4997951;28;20323;-80
2023/07/08 01:50:23;;;;;;;6.43;5.60;;;23.30;45.70;;;;;;4998356;28;20255;-80
2023/07/08 01:52:51;;;;;;;6.43;5.68;;;23.30;45.70;;;;;;4999614;28;20188;-80
2023/07/08 01:55:22;;;;;;;6.68;5.97;;;23.30;45.80;;;;;;5002594;28;20192;-80
2023/07/08 01:57:51;;;;;;;6.43;5.75;;;23.20;45.50;;;;;;5002444;28;20193;-80
2023/07/08 02:00:19;;;;;;;6.78;5.60;;;23.20;45.60;;;;;;5001715;28;20715;-79
2023/07/08 02:02:46;;;;;;;7.15;5.38;;;23.20;45.60;;;;;;5001730;28;20196;-79
2023/07/08 02:05:13;;;;;;;6.20;5.50;;;23.20;45.70;;;;;;5001279;28;20213;-79
2023/07/08 02:07:41;;;;;;;5.93;5.32;;;23.20;45.90;;;;;;5001864;28;20196;-79
2023/07/08 02:10:08;;;;;;;6.28;5.53;;;23.20;45.80;;;;;;5023877;28;20209;-79
2023/07/08 02:12:36;;;;;;;6.18;5.57;;;23.20;45.70;;;;;;5009342;28;20223;-79
2023/07/08 02:15:07;;;;;;;7.97;5.57;;;23.20;45.70;;;;;;5005891;28;20647;-79
2023/07/08 02:17:34;;;;;;;5.63;5.03;;;23.20;45.80;;;;;;5005292;28;20250;-79
2023/07/08 02:20:01;;;;;;;6.50;5.53;;;23.10;45.50;;;;;;5000804;28;20220;-79
2023/07/08 02:22:28;;;;;;;6.78;5.75;;;23.10;45.60;;;;;;5000254;28;20208;-80
2023/07/08 02:24:56;;;;;;;6.22;5.38;;;23.10;45.70;;;;;;5000247;28;20303;-80
2023/07/08 02:27:23;;;;;;;6.32;5.30;;;23.10;45.60;;;;;;5003185;28;20216;-80
2023/07/08 02:29:51;;;;;;;6.43;5.68;;;23.10;46.00;;;;;;5005356;28;20307;-80
2023/07/08 02:32:19;;;;;;;6.82;5.90;;;23.10;46.00;;;;;;5002752;28;20291;-80
2023/07/08 02:34:47;;;;;;;6.63;5.70;;;23.10;45.90;;;;;;5006666;28;20193;-81
2023/07/08 02:37:14;;;;;;;6.35;5.65;;;23.10;45.90;;;;;;5006453;28;20200;-80
2023/07/08 02:39:41;;;;;;;6.95;5.82;;;23.10;45.80;;;;;;5007316;28;20224;-80
2023/07/08 02:42:08;;;;;;;6.47;5.75;;;23.00;45.80;;;;;;5006282;28;20291;-81
2023/07/08 02:44:37;;;;;;;6.30;5.70;;;23.10;45.80;;;;;;5006367;28;20247;-81
2023/07/08 02:47:04;;;;;;;8.00;5.70;;;23.00;46.00;;;;;;5005929;28;20644;-81
2023/07/08 02:49:33;;;;;;;6.45;5.70;;;23.00;46.00;;;;;;5005412;28;20278;-81
2023/07/08 02:52:00;;;;;;;6.95;5.75;;;23.00;45.90;;;;;;5005280;28;20624;-81
2023/07/08 02:54:27;;;;;;;6.80;5.68;;;23.00;45.90;;;;;;5005058;28;20200;-81
2023/07/08 02:56:54;;;;;;;6.53;5.28;;;23.00;45.90;;;;;;5005569;28;20196;-81
2023/07/08 02:59:21;;;;;;;6.05;5.45;;;23.00;45.90;;;;;;5005010;28;20224;-81
2023/07/08 03:01:49;;;;;;;6.78;5.57;;;22.90;45.70;;;;;;5005065;28;20682;-80
2023/07/08 03:04:18;;;;;;;8.00;5.65;;;22.90;45.70;;;;;;5004401;28;20291;-80
2023/07/08 03:06:46;;;;;;;7.28;5.65;;;23.00;45.80;;;;;;5004573;28;20267;-80
2023/07/08 03:09:14;;;;;;;5.97;5.25;;;22.90;45.70;;;;;;5004349;28;20227;-79
2023/07/08 03:11:41;;;;;;;6.20;5.55;;;22.90;45.90;;;;;;5003574;28;20220;-79
2023/07/08 03:14:09;;;;;;;7.07;5.50;;;22.90;45.90;;;;;;5000241;28;20197;-79
2023/07/08 03:16:36;;;;;;;5.90;5.30;;;22.90;45.90;;;;;;4984256;28;20197;-80
2023/07/08 03:19:04;;;;;;;7.00;5.50;;;22.90;45.90;;;;;;5000181;28;20228;-80
2023/07/08 03:21:31;;;;;;;7.40;5.55;;;23.00;46.10;;;;;;4999850;28;20656;-81
2023/07/08 03:23:59;;;;;;;7.15;5.20;;;23.00;46.10;;;;;;5000005;28;20258;-81
2023/07/08 03:26:27;;;;;;;6.50;5.85;;;23.00;46.00;;;;;;4999292;28;20235;-80
2023/07/08 03:28:55;;;;;;;6.32;5.53;;;23.00;45.90;;;;;;4999073;28;20282;-80
2023/07/08 03:31:22;;;;;;;6.28;5.25;;;23.10;45.90;;;;;;4999793;28;20682;-81
2023/07/08 03:33:51;;;;;;;6.45;5.60;;;23.10;45.70;;;;;;4999486;28;20296;-81
2023/07/08 03:36:23;;;;;;;6.53;5.03;;;23.10;45.60;;;;;;4999288;28;20548;-80
2023/07/08 03:38:50;;;;;;;6.57;5.20;;;23.10;45.70;;;;;;4999568;28;20216;-80
2023/07/08 03:41:19;;;;;;;6.78;5.70;;;23.20;45.70;;;;;;4999263;28;20200;-80
2023/07/08 03:43:46;;;;;;;6.30;5.35;;;23.20;45.70;;;;;;4999182;28;20207;-80
2023/07/08 03:46:14;;;;;;;6.70;5.57;;;23.20;46.30;;;;;;4998892;28;20220;-80
2023/07/08 03:48:41;;;;;;;6.25;5.32;;;23.20;45.60;;;;;;4998894;28;20217;-80
2023/07/08 03:51:09;;;;;;;6.18;5.57;;;23.30;45.70;;;;;;4998878;28;20612;-80
2023/07/08 03:53:36;;;;;;;6.95;5.70;;;23.30;45.50;;;;;;4999266;28;20211;-80
2023/07/08 03:56:04;;;;;;;5.80;5.20;;;23.30;45.40;;;;;;4998720;28;20189;-80
2023/07/08 03:58:32;;;;;;;6.03;5.40;;;23.30;45.50;;;;;;4998515;28;20702;-80
2023/07/08 04:00:59;;;;;;;6.90;5.72;;;23.30;45.50;;;;;;4998865;28;20223;-80
2023/07/08 04:03:26;;;;;;;6.72;5.65;;;23.30;45.30;;;;;;4998979;28;20293;-80
2023/07/08 04:05:53;;;;;;;7.05;5.93;;;23.30;45.30;;;;;;4998311;28;20220;-80
2023/07/08 04:08:20;;;;;;;7.22;5.90;;;23.40;45.50;;;;;;4998532;28;20200;-80
2023/07/08 04:10:47;;;;;;;6.75;5.57;;;23.40;45.40;;;;;;4998578;28;20215;-81
2023/07/08 04:13:14;;;;;;;7.15;6.03;;;23.30;45.20;;;;;;4998505;28;20192;-81
2023/07/08 04:15:43;;;;;;;6.80;5.78;;;23.40;45.20;;;;;;4998537;28;20193;-80
2023/07/08 04:18:10;;;;;;;6.43;5.35;;;23.30;45.20;;;;;;4999368;28;20204;-80
2023/07/08 04:20:37;;;;;;;6.70;5.75;;;23.40;45.30;;;;;;5013022;28;20208;-80
2023/07/08 04:23:04;;;;;;;7.80;5.80;;;23.40;45.30;;;;;;5017803;28;20203;-80
2023/07/08 04:25:32;;;;;;;8.10;5.95;;;23.40;45.30;;;;;;5000651;28;20212;-80
2023/07/08 04:27:59;;;;;;;6.07;5.47;;;23.40;45.20;;;;;;4999865;28;20255;-80
2023/07/08 04:30:26;;;;;;;6.60;5.80;;;23.40;45.10;;;;;;4999401;28;20224;-80
2023/07/08 04:32:55;;;;;;;7.13;5.60;;;23.50;45.10;;;;;;4998280;28;20212;-79
2023/07/08 04:35:23;;;;;;;6.78;5.60;;;23.50;45.20;;;;;;4998339;28;20197;-82
2023/07/08 04:37:50;;;;;;;6.40;5.53;;;23.50;45.20;;;;;;4999425;28;20196;-81
2023/07/08 04:40:19;;;;;;;6.55;5.75;;;23.50;45.10;;;;;;4998165;28;20240;-77
2023/07/08 04:42:47;;;;;;;6.50;5.50;;;23.50;45.20;;;;;;4997752;28;20250;-78
2023/07/08 04:45:23;;;;;;;8.05;6.63;;;23.50;45.30;;;;;;4997171;28;20209;-78
2023/07/08 04:47:52;;;;;;;6.55;5.85;;;23.50;45.50;;;;;;4997664;28;20743;-77
2023/07/08 04:50:20;;;;;;;8.52;6.78;;;23.40;46.00;;;;;;4998574;28;20226;-77
2023/07/08 04:52:47;;;;;;;7.95;6.15;;;23.40;45.50;;;;;;4997748;28;20205;-77
2023/07/08 04:55:14;;;;;;;7.38;6.28;;;23.40;46.20;;;;;;4997467;28;20220;-77
2023/07/08 04:57:41;;;;;;;6.80;6.10;;;23.40;46.20;;;;;;5013765;28;20216;-77
2023/07/08 05:00:10;;;;;;;7.30;5.97;;;23.40;46.70;;;;;;4997225;28;20220;-77
2023/07/08 05:02:37;;;;;;;8.05;6.55;;;23.50;45.10;;;;;;4997123;28;20200;-77
2023/07/08 05:05:05;;;;;;;7.82;6.47;;;23.50;46.20;;;;;;4997651;28;20208;-77
2023/07/08 05:07:33;;;;;;;7.93;5.97;;;23.60;46.30;;;;;;4997360;28;20221;-77
2023/07/08 05:10:00;;;;;;;8.35;6.45;;;23.70;46.60;;;;;;4997296;28;20295;-77
2023/07/08 05:12:28;;;;;;;7.53;6.22;;;23.70;46.80;;;;;;4980894;28;20255;-77
2023/07/08 05:14:55;;;;;;;7.70;5.85;;;23.80;47.20;;;;;;4997085;28;20200;-77
2023/07/08 05:17:22;;;;;;;8.45;6.28;;;23.80;47.40;;;;;;4997311;28;20289;-78
2023/07/08 05:19:51;;;;;;;6.78;5.75;;;23.90;47.00;;;;;;4997645;28;20220;-78
2023/07/08 05:22:24;;;;;;;7.78;6.13;;;24.00;46.40;;;;;;4996862;28;20200;-78
2023/07/08 05:24:55;;;;;;;8.77;5.97;;;24.20;45.70;;;;;;4997258;28;20197;-78
2023/07/08 05:27:23;;;;;;;7.72;5.70;;;24.40;45.30;;;;;;4996663;28;20219;-78
2023/07/08 05:29:50;;;;;;;6.88;5.90;;;24.50;44.90;;;;;;4997198;28;20228;-78
2023/07/08 05:32:17;;;;;;;7.13;5.55;;;24.70;44.60;;;;;;4997504;28;20307;-78
2023/07/08 05:34:44;;;;;;;6.28;5.65;;;24.90;44.40;;;;;;4997613;28;20196;-78
2023/07/08 05:37:11;;;;;;;6.40;5.78;;;24.90;44.30;;;;;;4996751;28;20201;-78
2023/07/08 05:39:38;;;;;;;6.22;5.60;;;24.90;44.20;;;;;;4996949;28;20216;-78
2023/07/08 05:42:07;;;;;;;8.65;5.85;;;25.00;44.00;;;;;;4997279;28;20659;-79
2023/07/08 05:44:35;;;;;;;7.40;6.00;;;25.00;43.90;;;;;;4999733;28;20734;-81
2023/07/08 05:47:02;;;;;;;6.57;5.60;;;25.00;43.80;;;;;;4996965;28;20224;-81
2023/07/08 05:49:29;;;;;;;7.10;6.40;;;25.00;43.90;;;;;;4996741;28;20227;-81
2023/07/08 05:51:56;;;;;;;6.72;5.78;;;25.00;44.00;;;;;;4997262;28;20204;-81
2023/07/08 05:54:23;;;;;;;7.57;6.32;;;25.00;43.90;;;;;;4997762;28;20228;-81
2023/07/08 05:56:50;;;;;;;7.38;6.05;;;25.10;43.70;;;;;;4996801;28;20219;-81
2023/07/08 05:59:18;;;;;;;6.82;5.82;;;25.20;43.50;;;;;;4996656;28;20209;-81
2023/07/08 06:01:45;;;;;;;7.38;5.90;;;25.30;43.50;;;;;;4996811;28;20619;-81
2023/07/08 06:04:12;;;;;;;8.02;6.20;;;25.30;43.40;;;;;;4996265;28;20251;-81
2023/07/08 06:06:39;;;;;;;8.20;6.25;;;25.40;43.50;;;;;;4996726;28;20221;-81
2023/07/08 06:09:06;;;;;;;6.65;5.80;;;25.40;43.50;;;;;;4997533;28;20228;-81
2023/07/08 06:11:33;;;;;;;7.82;6.22;;;25.40;43.60;;;;;;4997432;28;20222;-81
2023/07/08 06:13:59;;;;;;;7.57;5.82;;;25.30;43.60;;;;;;4997202;28;20192;-81
2023/07/08 06:16:29;;;;;;;7.40;5.55;;;25.40;43.70;;;;;;4997380;28;20204;-81
2023/07/08 06:18:57;;;;;;;7.10;5.50;;;25.30;43.70;;;;;;4997203;28;20217;-82
2023/07/08 06:21:24;;;;;;;8.25;5.90;;;25.40;43.60;;;;;;4982568;28;20205;-82
2023/07/08 06:23:51;;;;;;;6.97;5.90;;;25.50;43.60;;;;;;4997253;28;20203;-82
2023/07/08 06:26:18;;;;;;;7.53;5.93;;;25.60;43.30;;;;;;4997372;28;20221;-82
2023/07/08 06:28:45;;;;;;;6.53;5.32;;;25.70;43.00;;;;;;4997434;28;20220;-81
2023/07/08 06:31:12;;;;;;;7.40;6.22;;;25.90;42.90;;;;;;4997597;28;20204;-81
2023/07/08 06:33:41;;;;;;;6.85;5.90;;;25.90;42.70;;;;;;4997586;28;20214;-81
2023/07/08 06:36:08;;;;;;;6.57;5.68;;;25.90;42.80;;;;;;4980984;28;20224;-81
2023/07/08 06:38:35;;;;;;;7.05;5.63;;;25.90;42.80;;;;;;4998064;28;20278;-81
2023/07/08 06:41:02;;;;;;;6.70;5.97;;;25.80;42.90;;;;;;5017606;28;20212;-81
2023/07/08 06:43:29;;;;;;;6.47;5.70;;;25.80;43.00;;;;;;5001346;28;20197;-81
2023/07/08 06:46:12;;;;;;;8.52;5.93;;;25.70;43.20;;;;;;5000975;28;20224;-82
2023/07/08 06:48:40;;;;;;;7.85;6.05;;;25.70;43.40;;;;;;5001464;28;20220;-81
2023/07/08 06:51:08;;;;;;;7.15;6.10;;;25.60;43.40;;;;;;5008613;28;20193;-81
2023/07/08 06:53:35;;;;;;;7.65;6.20;;;25.60;43.30;;;;;;5001910;28;20196;-81
2023/07/08 06:56:02;;;;;;;7.10;6.15;;;25.60;43.30;;;;;;5003612;28;20287;-81
2023/07/08 06:58:29;;;;;;;6.97;5.70;;;25.70;43.40;;;;;;5001550;28;20220;-81
2023/07/08 07:00:56;;;;;;;7.22;5.75;;;25.70;43.40;;;;;;5000893;28;20220;-81
2023/07/08 07:03:24;;;;;;;6.63;5.93;;;25.70;43.40;;;;;;5000892;28;20610;-81
2023/07/08 07:05:52;;;;;;;8.18;5.72;;;25.70;43.30;;;;;;5000298;28;20200;-81
2023/07/08 07:08:19;;;;;;;7.75;6.32;;;25.80;43.40;;;;;;4999264;28;20262;-81
2023/07/08 07:10:46;;;;;;;8.95;5.93;;;25.70;43.40;;;;;;4999444;28;20201;-81
2023/07/08 07:13:13;;;;;;;8.10;5.63;;;25.70;43.40;;;;;;4999598;28;20201;-81
2023/07/08 07:15:40;;;;;;;8.70;6.25;;;25.60;43.50;;;;;;5000571;28;20201;-81
2023/07/08 07:18:07;;;;;;;8.55;6.30;;;25.60;43.50;;;;;;5005047;28;20220;-80
2023/07/08 07:20:34;;;;;;;7.07;5.63;;;25.60;44.20;;;;;;5005031;28;20204;-80
2023/07/08 07:23:02;;;;;;;7.57;6.00;;;25.60;43.60;;;;;;5004433;28;20204;-80
2023/07/08 07:25:29;;;;;;;9.40;6.60;;;25.60;43.70;;;;;;5003864;28;20201;-80
2023/07/08 07:27:57;;;;;;;8.00;6.47;;;25.50;43.70;;;;;;5003867;28;20240;-80
2023/07/08 07:30:24;;;;;;;7.35;6.10;;;25.50;43.70;;;;;;5020147;28;20244;-80
2023/07/08 07:32:51;;;;;;;8.73;5.88;;;25.50;43.80;;;;;;5003380;28;20570;-81
2023/07/08 07:35:18;;;;;;;6.43;5.65;;;25.50;43.90;;;;;;5003183;28;20212;-81
2023/07/08 07:37:45;;;;;;;8.32;6.15;;;25.50;43.90;;;;;;5002836;28;20228;-81
2023/07/08 07:40:15;;;;;;;7.70;5.93;;;25.50;44.60;;;;;;5003128;28;20275;-81
2023/07/08 07:42:42;;;;;;;7.97;6.10;;;25.40;44.00;;;;;;4999702;28;20243;-81
2023/07/08 07:45:10;;;;;;;6.32;5.10;;;25.40;44.00;;;;;;4999837;28;20227;-81
2023/07/08 07:47:37;;;;;;;6.85;5.53;;;25.40;44.00;;;;;;4998616;28;20213;-81
2023/07/08 07:50:04;;;;;;;7.20;5.53;;;25.40;44.00;;;;;;4997743;28;20228;-81
2023/07/08 07:52:31;;;;;;;7.00;5.75;;;25.50;44.10;;;;;;4998639;28;20205;-81
2023/07/08 07:54:58;;;;;;;7.25;5.88;;;25.50;44.30;;;;;;4998331;28;20207;-81
2023/07/08 07:57:26;;;;;;;7.88;5.78;;;25.50;44.40;;;;;;4998331;28;20228;-81
2023/07/08 07:59:53;;;;;;;7.07;5.90;;;25.50;44.50;;;;;;4998173;28;20220;-81
2023/07/08 08:02:20;;;;;;;7.75;5.97;;;25.50;44.50;;;;;;4998588;28;20201;-81
2023/07/08 08:04:51;;;;;;;7.03;5.88;;;25.60;44.30;;;;;;4997499;28;20247;-81
2023/07/08 08:07:18;;;;;;;7.13;5.20;;;25.80;44.20;;;;;;4998204;28;20311;-81
2023/07/08 08:09:44;;;;;;;7.28;5.82;;;25.90;43.70;;;;;;4998920;28;20224;-81
2023/07/08 08:12:11;;;;;;;6.40;5.57;;;26.00;43.50;;;;;;4999270;28;20647;-81
2023/07/08 08:14:40;;;;;;;6.95;5.90;;;26.10;43.30;;;;;;4998419;28;20220;-81
2023/07/08 08:17:07;;;;;;;6.70;5.15;;;26.20;43.30;;;;;;4998014;28;20196;-81
2023/07/08 08:19:34;;;;;;;7.47;5.78;;;26.20;43.20;;;;;;4997693;28;20592;-81
2023/07/08 08:22:01;;;;;;;8.23;5.50;;;26.20;43.20;;;;;;4981553;28;20204;-81
2023/07/08 08:24:28;;;;;;;6.25;5.22;;;26.40;42.90;;;;;;4997882;28;20220;-81
2023/07/08 08:26:55;;;;;;;6.20;5.60;;;26.40;42.70;;;;;;4997988;28;20698;-81
2023/07/08 08:29:22;;;;;;;7.40;5.15;;;26.50;42.70;;;;;;4997641;28;20220;-81
2023/07/08 08:31:51;;;;;;;5.90;5.20;;;26.50;42.70;;;;;;4998015;28;20204;-81
2023/07/08 08:34:18;;;;;;;7.38;5.63;;;26.50;42.60;;;;;;4997802;28;20262;-81
2023/07/08 08:36:45;;;;;;;7.07;5.53;;;26.60;42.60;;;;;;4981995;28;20201;-81
2023/07/08 08:39:11;;;;;;;7.20;5.57;;;26.60;42.50;;;;;;4998693;28;20583;-81
2023/07/08 08:41:39;;;;;;;6.35;5.10;;;26.70;42.20;;;;;;4999150;28;20200;-81
2023/07/08 08:44:07;;;;;;;6.45;5.45;;;26.80;41.90;;;;;;4999136;28;20621;-81
2023/07/08 08:46:39;;;;;;;6.85;5.35;;;26.90;41.80;;;;;;4998408;28;20647;-81
2023/07/08 08:49:14;;;;;;;6.82;5.20;;;26.90;41.80;;;;;;4998662;28;20230;-81
2023/07/08 08:51:41;;;;;;;7.30;5.50;;;26.90;41.80;;;;;;4998332;28;20290;-81
2023/07/08 08:54:08;;;;;;;6.47;5.13;;;26.90;41.80;;;;;;4998045;28;20203;-81
2023/07/08 08:56:38;;;;;;;6.30;5.00;;;26.90;41.60;;;;;;4997608;28;20616;-81
2023/07/08 08:59:07;;;;;;;6.97;5.28;;;26.90;41.80;;;;;;4998451;28;20229;-81
2023/07/08 09:01:35;;;;;;;6.93;5.93;;;26.90;41.80;;;;;;4999559;28;20208;-81
2023/07/08 09:04:03;;;;;;;6.63;5.03;;;26.80;41.70;;;;;;4998570;28;20203;-81
2023/07/08 09:06:32;;;;;;;7.30;5.40;;;26.80;41.70;;;;;;4998100;28;20207;-81
2023/07/08 09:09:03;;;;;;;6.03;5.43;;;26.90;41.80;;;;;;4997267;28;20761;-80
2023/07/08 09:11:40;;;;;;;6.50;5.32;;;27.00;41.70;;;;;;4997381;28;20240;-80
2023/07/08 09:14:13;;;;;;;5.53;4.93;;;27.10;41.40;;;;;;4997580;28;20191;-80
2023/07/08 09:16:43;;;;;;;6.68;5.18;;;27.20;41.30;;;;;;4997835;28;20200;-80
2023/07/08 09:19:12;;;;;;;6.45;5.32;;;27.20;41.10;;;;;;4997553;28;20231;-80
2023/07/08 09:21:43;;;;;;;6.20;5.20;;;27.40;40.90;;;;;;4997171;28;20192;-80
2023/07/08 09:24:11;;;;;;;6.63;5.15;;;27.40;40.80;;;;;;4997322;28;20199;-80
2023/07/08 09:26:38;;;;;;;5.90;5.30;;;27.40;40.70;;;;;;4998369;28;20200;-80
2023/07/08 09:29:09;;;;;;;7.15;5.32;;;27.50;40.70;;;;;;4997761;28;20219;-80
2023/07/08 09:31:39;;;;;;;5.50;4.85;;;27.40;40.70;;;;;;5000013;28;20196;-80
2023/07/08 09:34:08;;;;;;;6.07;4.90;;;27.40;40.80;;;;;;4997621;28;20219;-80
2023/07/08 09:36:35;;;;;;;5.88;5.00;;;27.30;40.80;;;;;;4997342;28;20222;-81
2023/07/08 09:39:03;;;;;;;5.53;4.72;;;27.40;40.80;;;;;;4997258;28;20254;-81
2023/07/08 09:41:31;;;;;;;6.18;5.18;;;27.40;40.80;;;;;;4997893;28;20196;-81
2023/07/08 09:44:15;;;;;;;6.40;5.32;;;27.40;40.70;;;;;;5013981;28;20200;-81
2023/07/08 09:46:42;;;;;;;6.50;4.63;;;27.40;40.70;;;;;;5022305;28;20239;-81
2023/07/08 09:49:22;;;;;;;5.47;4.80;;;27.40;40.70;;;;;;5004294;28;20762;-81
2023/07/08 09:51:50;;;;;;;5.80;5.20;;;27.40;40.70;;;;;;4983832;28;20219;-82
2023/07/08 09:54:19;;;;;;;6.35;4.80;;;27.50;40.60;;;;;;5013442;28;20200;-82
2023/07/08 09:56:55;;;;;;;5.28;4.78;;;27.60;40.50;;;;;;4997107;28;20200;-82
2023/07/08 09:59:23;;;;;;;5.80;4.72;;;27.70;40.40;;;;;;5000892;28;20219;-82
2023/07/08 10:01:49;;;;;;;6.18;4.35;;;27.80;40.10;;;;;;5001357;28;20203;-81
2023/07/08 10:04:16;;;;;;;5.90;4.88;;;27.80;40.10;;;;;;5002037;28;20685;-81
2023/07/08 10:06:46;;;;;;;5.55;4.28;;;27.80;40.10;;;;;;5018552;28;20203;-81
2023/07/08 10:09:18;;;;;;;5.70;4.63;;;27.80;40.10;;;;;;5001868;28;20220;-80
2023/07/08 10:11:48;;;;;;;4.78;4.38;;;27.70;40.20;;;;;;5002175;28;20199;-80
2023/07/08 10:14:21;;;;;;;6.18;4.15;;;27.70;40.40;;;;;;5003870;28;20192;-80
2023/07/08 10:16:48;;;;;;;4.95;4.40;;;27.60;40.40;;;;;;5016981;28;20275;-80
2023/07/08 10:19:16;;;;;;;5.30;4.80;;;27.50;40.60;;;;;;5000084;28;20227;-80
2023/07/08 10:21:48;;;;;;;5.80;4.32;;;27.40;40.80;;;;;;5000040;28;20250;-80
2023/07/08 10:24:28;;;;;;;4.93;4.20;;;27.30;41.10;;;;;;5000938;28;20196;-80
2023/07/08 10:27:13;;;;;;;4.93;4.43;;;27.20;41.20;;;;;;5000784;28;20195;-80
2023/07/08 10:29:44;;;;;;;5.05;4.47;;;27.20;41.40;;;;;;5000291;28;20220;-80
2023/07/08 10:32:19;;;;;;;4.22;3.80;;;27.10;41.50;;;;;;5000077;28;20195;-80
2023/07/08 10:34:48;;;;;;;5.07;4.57;;;27.10;41.60;;;;;;5000202;28;20207;-80
2023/07/08 10:37:23;;;;;;;5.38;4.50;;;27.10;41.40;;;;;;5005543;28;20192;-80
2023/07/08 10:39:56;;;;;;;6.35;4.57;;;27.20;41.40;;;;;;4999358;28;20230;-80
2023/07/08 10:42:33;;;;;;;7.18;4.60;;;27.20;41.30;;;;;;5001460;28;20550;-80
2023/07/08 10:45:05;;;;;;;5.57;4.63;;;27.20;41.30;;;;;;4983826;28;20200;-80
2023/07/08 10:47:40;;;;;;;4.90;4.15;;;27.20;41.30;;;;;;5000132;28;20212;-80
2023/07/08 10:50:19;;;;;;;4.60;4.20;;;27.20;41.30;;;;;;4999624;28;20212;-80
2023/07/08 10:52:52;;;;;;;5.47;4.45;;;27.20;41.90;;;;;;5000736;28;20188;-80
2023/07/08 10:55:27;;;;;;;4.72;3.97;;;27.20;41.40;;;;;;4984051;28;20197;-80
2023/07/08 10:58:35;;;;;;;4.43;4.03;;;27.20;41.40;;;;;;5017130;28;20184;-80
2023/07/08 11:01:07;;;;;;;5.57;4.72;;;27.20;41.50;;;;;;5019016;28;20203;-80
2023/07/08 11:04:09;;;;;;;4.57;4.10;;;27.10;41.60;;;;;;5020158;28;20220;-80
2023/07/08 11:06:44;;;;;;;4.65;4.13;;;27.10;41.60;;;;;;5034529;28;20192;-80
2023/07/08 11:09:13;;;;;;;4.93;3.90;;;27.10;41.80;;;;;;5016399;28;20756;-80
2023/07/08 11:11:43;;;;;;;4.93;3.83;;;27.00;41.80;;;;;;5023141;28;20207;-80
2023/07/08 11:14:14;;;;;;;4.22;3.80;;;27.00;41.90;;;;;;5004821;28;20203;-80
2023/07/08 11:16:44;;;;;;;4.35;3.80;;;27.00;41.90;;;;;;5022575;28;20187;-80
2023/07/08 11:19:14;;;;;;;5.15;3.70;;;27.00;41.90;;;;;;5003988;28;20243;-80
2023/07/08 11:21:42;;;;;;;4.90;3.70;;;26.90;41.80;;;;;;5004194;28;20208;-80
2023/07/08 11:24:13;;;;;;;5.78;4.00;;;26.90;41.90;;;;;;5003445;28;20196;-80
2023/07/08 11:26:43;;;;;;;5.22;3.95;;;26.90;41.90;;;;;;5003548;28;20611;-80
2023/07/08 11:29:15;;;;;;;4.35;3.92;;;26.90;42.00;;;;;;5003031;28;20227;-80
2023/07/08 11:31:46;;;;;;;4.82;3.65;;;26.90;42.10;;;;;;5004383;28;20268;-80
2023/07/08 11:34:13;;;;;;;4.13;3.70;;;27.00;42.20;;;;;;5001606;28;20204;-80
2023/07/08 11:36:41;;;;;;;4.35;3.90;;;26.90;42.00;;;;;;5001505;28;20200;-80
2023/07/08 11:39:27;;;;;;;4.28;3.70;;;26.90;42.10;;;;;;5003336;28;20219;-80
2023/07/08 11:41:55;;;;;;;3.80;3.40;;;27.00;42.20;;;;;;5003161;28;20195;-81
2023/07/08 11:44:23;;;;;;;3.90;3.50;;;26.90;42.20;;;;;;5018694;28;20581;-81
2023/07/08 11:46:54;;;;;;;6.07;3.60;;;26.90;42.30;;;;;;5002333;28;20200;-80
2023/07/08 11:49:21;;;;;;;4.07;3.17;;;26.90;42.40;;;;;;5001679;28;20718;-80
2023/07/08 11:51:48;;;;;;;4.45;3.60;;;26.90;42.50;;;;;;5000932;28;20196;-78
2023/07/08 11:54:20;;;;;;;5.68;3.33;;;26.90;42.60;;;;;;4998373;28;20228;-78
2023/07/08 11:56:49;;;;;;;3.58;3.22;;;26.90;42.60;;;;;;4998234;28;20195;-78
2023/07/08 11:59:18;;;;;;;4.90;3.63;;;26.90;42.70;;;;;;4997988;28;20238;-78
2023/07/08 12:01:52;;;;;;;3.17;2.80;;;27.00;42.90;;;;;;4998198;28;20196;-78
2023/07/08 12:04:30;;;;;;;3.90;3.20;;;27.00;43.00;;;;;;4996421;28;20203;-78
2023/07/08 12:07:07;;;;;;;3.80;2.65;;;27.10;43.10;;;;;;4996237;28;20250;-78
2023/07/08 12:09:37;;;;;;;3.58;3.17;;;27.10;43.10;;;;;;4996199;28;20228;-78
2023/07/08 12:12:08;;;;;;;5.63;3.22;;;27.10;43.10;;;;;;4996267;28;20738;-78
2023/07/08 12:14:35;;;;;;;4.90;2.92;;;27.10;43.00;;;;;;4996092;28;20280;-78
2023/07/08 12:17:03;;;;;;;3.47;2.90;;;27.20;42.90;;;;;;4996637;28;20204;-78
2023/07/08 12:19:31;;;;;;;3.33;2.65;;;27.10;42.40;;;;;;4997719;28;20215;-78
2023/07/08 12:21:59;;;;;;;3.10;2.28;;;27.20;42.10;;;;;;4998021;28;20196;-78
2023/07/08 12:24:27;;;;;;;3.78;2.50;;;27.20;42.50;;;;;;4982104;28;20204;-79
2023/07/08 12:26:54;;;;;;;3.70;2.63;;;27.20;42.30;;;;;;4998437;28;20234;-79
2023/07/08 12:29:21;;;;;;;3.70;2.58;;;27.20;42.20;;;;;;4997621;28;20232;-78
2023/07/08 12:31:48;;;;;;;4.65;2.53;;;27.20;42.50;;;;;;4997860;28;20651;-78
2023/07/08 12:34:16;;;;;;;3.47;2.63;;;27.20;43.00;;;;;;4997557;28;20208;-78
2023/07/08 12:36:44;;;;;;;3.83;3.10;;;27.20;42.30;;;;;;4997084;28;20204;-78
2023/07/08 12:39:14;;;;;;;4.20;2.30;;;27.20;42.20;;;;;;4997424;28;20220;-78
2023/07/08 12:41:41;;;;;;;3.65;2.60;;;27.20;42.00;;;;;;4997702;28;20251;-78
2023/07/08 12:44:14;;;;;;;2.90;2.60;;;27.20;42.00;;;;;;4997762;28;20246;-78
2023/07/08 12:46:41;;;;;;;3.28;2.88;;;27.20;42.00;;;;;;4997528;28;20231;-78
2023/07/08 12:49:09;;;;;;;2.85;2.55;;;27.20;42.00;;;;;;4998368;28;20270;-78
2023/07/08 12:51:45;;;;;;;3.92;2.65;;;27.20;42.00;;;;;;4999737;28;20561;-80
2023/07/08 12:54:13;;;;;;;3.50;2.60;;;27.20;42.10;;;;;;4983303;28;20196;-79
2023/07/08 12:56:40;;;;;;;4.00;2.50;;;27.20;42.00;;;;;;4996870;28;20262;-78